Terminal Aerodrome Forecast
Issued by NWS Omaha/Valley, NE

Home | Current Version | Previous Version | Text Only | Print | Product List | Glossary On
Versions: 1 2 3 4 5 6 7 8 9 10 11 12 13 14 15 16 17 18 19 20 21 22 23 24 25 26 27 28 29 30 31 32 33 34 35 36 37 38 39 40 41
000
FTUS43 KOAX 160900 AAD
TAFOMA
TAF AMD
KOMA 160900Z 1609/1706 VRB03KT 2SM BR SCT002
      TEMPO 1610/1612 1/2SM FG BKN002
     FM161200 16003KT 2SM BR BKN005
      TEMPO 1612/1614 1/2SM FG
     FM161500 17005KT P6SM SCT010
     FM161800 17008KT P6SM SCT040 SCT100
     FM170000 15005KT P6SM BKN250=

USA.gov is the U.S. government's official web portal to all federal, state and local government web resources and services.